sensor_id;sensor_type;location;lat;lon;timestamp;pressure;altitude;pressure_sealevel;temperature;humidity
46448;BME280;32145;50.390;30.778;2024-03-06T00:02:51;100281.38;;;3.58;67.50
46448;BME280;32145;50.390;30.778;2024-03-06T00:05:47;100291.25;;;3.57;67.74
46448;BME280;32145;50.390;30.778;2024-03-06T00:08:45;100289.59;;;3.56;67.93
46448;BME280;32145;50.390;30.778;2024-03-06T00:11:41;100295.13;;;3.55;67.67
46448;BME280;32145;50.390;30.778;2024-03-06T00:14:38;100288.06;;;3.54;67.72
46448;BME280;32145;50.390;30.778;2024-03-06T00:17:34;100285.38;;;3.54;68.09
46448;BME280;32145;50.390;30.778;2024-03-06T00:20:30;100287.44;;;3.52;68.11
46448;BME280;32145;50.390;30.778;2024-03-06T00:23:26;100285.75;;;3.51;68.08
46448;BME280;32145;50.390;30.778;2024-03-06T00:26:22;100285.75;;;3.51;68.25
46448;BME280;32145;50.390;30.778;2024-03-06T00:29:17;100281.41;;;3.50;68.00
46448;BME280;32145;50.390;30.778;2024-03-06T00:32:11;100285.25;;;3.47;68.16
46448;BME280;32145;50.390;30.778;2024-03-06T00:35:06;100287.31;;;3.45;67.98
46448;BME280;32145;50.390;30.778;2024-03-06T00:38:01;100286.47;;;3.44;67.96
46448;BME280;32145;50.390;30.778;2024-03-06T00:40:55;100292.84;;;3.43;68.10
46448;BME280;32145;50.390;30.778;2024-03-06T00:43:51;100292.16;;;3.41;68.48
46448;BME280;32145;50.390;30.778;2024-03-06T00:46:45;100291.53;;;3.39;68.32
46448;BME280;32145;50.390;30.778;2024-03-06T00:49:41;100288.84;;;3.39;68.28
46448;BME280;32145;50.390;30.778;2024-03-06T00:52:38;100291.88;;;3.36;68.53
46448;BME280;32145;50.390;30.778;2024-03-06T00:55:34;100296.59;;;3.34;68.30
46448;BME280;32145;50.390;30.778;2024-03-06T00:58:31;100291.56;;;3.31;68.42
46448;BME280;32145;50.390;30.778;2024-03-06T01:01:28;100300.59;;;3.30;68.22
46448;BME280;32145;50.390;30.778;2024-03-06T01:04:23;100291.91;;;3.28;68.61
46448;BME280;32145;50.390;30.778;2024-03-06T01:07:17;100299.94;;;3.28;68.72
46448;BME280;32145;50.390;30.778;2024-03-06T01:10:11;100295.59;;;3.27;68.77
46448;BME280;32145;50.390;30.778;2024-03-06T01:13:06;100299.66;;;3.22;69.17
46448;BME280;32145;50.390;30.778;2024-03-06T01:16:02;100305.19;;;3.21;68.76
46448;BME280;32145;50.390;30.778;2024-03-06T01:19:00;100300.34;;;3.16;68.89
46448;BME280;32145;50.390;30.778;2024-03-06T01:21:56;100312.06;;;3.15;69.02
46448;BME280;32145;50.390;30.778;2024-03-06T01:24:53;100306.88;;;3.14;69.10
46448;BME280;32145;50.390;30.778;2024-03-06T01:27:49;100306.88;;;3.14;69.03
46448;BME280;32145;50.390;30.778;2024-03-06T01:30:45;100314.25;;;3.12;69.26
46448;BME280;32145;50.390;30.778;2024-03-06T01:33:42;100316.44;;;3.08;69.70
46448;BME280;32145;50.390;30.778;2024-03-06T01:36:39;100317.47;;;3.07;69.86
46448;BME280;32145;50.390;30.778;2024-03-06T01:39:34;100311.25;;;3.06;69.67
46448;BME280;32145;50.390;30.778;2024-03-06T01:42:28;100316.63;;;3.06;70.63
46448;BME280;32145;50.390;30.778;2024-03-06T01:45:22;100313.47;;;3.03;70.32
46448;BME280;32145;50.390;30.778;2024-03-06T01:48:17;100310.09;;;3.01;70.18
46448;BME280;32145;50.390;30.778;2024-03-06T01:51:14;100312.31;;;2.97;70.67
46448;BME280;32145;50.390;30.778;2024-03-06T01:54:10;100318.84;;;2.94;70.44
46448;BME280;32145;50.390;30.778;2024-03-06T01:57:04;100314.63;;;2.92;70.53
46448;BME280;32145;50.390;30.778;2024-03-06T02:00:00;100323.69;;;2.91;70.65
46448;BME280;32145;50.390;30.778;2024-03-06T02:02:54;100314.84;;;2.90;70.87
46448;BME280;32145;50.390;30.778;2024-03-06T02:05:49;100315.81;;;2.89;71.01
46448;BME280;32145;50.390;30.778;2024-03-06T02:08:44;100316.00;;;2.88;71.36
46448;BME280;32145;50.390;30.778;2024-03-06T02:11:40;100314.34;;;2.87;71.37
46448;BME280;32145;50.390;30.778;2024-03-06T02:14:34;100316.38;;;2.85;71.00
46448;BME280;32145;50.390;30.778;2024-03-06T02:17:29;100316.69;;;2.81;71.04
46448;BME280;32145;50.390;30.778;2024-03-06T02:20:25;100318.53;;;2.81;70.98
46448;BME280;32145;50.390;30.778;2024-03-06T02:23:19;100329.56;;;2.78;71.06
46448;BME280;32145;50.390;30.778;2024-03-06T02:26:14;100333.59;;;2.74;71.13
46448;BME280;32145;50.390;30.778;2024-03-06T02:29:09;100343.66;;;2.72;71.32
46448;BME280;32145;50.390;30.778;2024-03-06T02:32:03;100344.00;;;2.68;71.42
46448;BME280;32145;50.390;30.778;2024-03-06T02:34:58;100341.66;;;2.65;71.59
46448;BME280;32145;50.390;30.778;2024-03-06T02:37:53;100345.69;;;2.61;71.49
46448;BME280;32145;50.390;30.778;2024-03-06T02:40:47;100354.03;;;2.58;71.58
46448;BME280;32145;50.390;30.778;2024-03-06T02:43:44;100356.72;;;2.58;71.89
46448;BME280;32145;50.390;30.778;2024-03-06T02:46:40;100351.88;;;2.62;72.31
46448;BME280;32145;50.390;30.778;2024-03-06T02:49:36;100359.38;;;2.58;72.25
46448;BME280;32145;50.390;30.778;2024-03-06T02:52:33;100364.44;;;2.53;71.99
46448;BME280;32145;50.390;30.778;2024-03-06T02:55:30;100362.75;;;2.52;72.42
46448;BME280;32145;50.390;30.778;2024-03-06T02:58:26;100363.25;;;2.47;71.82
46448;BME280;32145;50.390;30.778;2024-03-06T03:01:24;100362.59;;;2.45;71.86
46448;BME280;32145;50.390;30.778;2024-03-06T03:04:18;100372.47;;;2.44;71.78
46448;BME280;32145;50.390;30.778;2024-03-06T03:07:13;100369.47;;;2.39;72.46
46448;BME280;32145;50.390;30.778;2024-03-06T03:10:08;100371.97;;;2.41;72.12
46448;BME280;32145;50.390;30.778;2024-03-06T03:13:04;100368.78;;;2.37;72.22
46448;BME280;32145;50.390;30.778;2024-03-06T03:15:58;100373.31;;;2.37;72.38
46448;BME280;32145;50.390;30.778;2024-03-06T03:18:52;100374.28;;;2.36;72.38
46448;BME280;32145;50.390;30.778;2024-03-06T03:21:46;100368.44;;;2.32;72.25
46448;BME280;32145;50.390;30.778;2024-03-06T03:24:41;100378.47;;;2.30;71.91
46448;BME280;32145;50.390;30.778;2024-03-06T03:27:36;100383.66;;;2.31;72.34
46448;BME280;32145;50.390;30.778;2024-03-06T03:30:32;100384.50;;;2.32;72.49
46448;BME280;32145;50.390;30.778;2024-03-06T03:33:27;100393.53;;;2.31;72.65
46448;BME280;32145;50.390;30.778;2024-03-06T03:36:21;100391.19;;;2.28;72.72
46448;BME280;32145;50.390;30.778;2024-03-06T03:39:16;100389.84;;;2.24;72.50
46448;BME280;32145;50.390;30.778;2024-03-06T03:42:10;100384.84;;;2.21;72.87
46448;BME280;32145;50.390;30.778;2024-03-06T03:45:05;100387.50;;;2.21;72.60
46448;BME280;32145;50.390;30.778;2024-03-06T03:48:01;100389.16;;;2.22;72.85
46448;BME280;32145;50.390;30.778;2024-03-06T03:50:56;100392.38;;;2.17;72.87
46448;BME280;32145;50.390;30.778;2024-03-06T03:53:50;100393.19;;;2.17;73.15
46448;BME280;32145;50.390;30.778;2024-03-06T03:56:44;100390.00;;;2.14;72.53
46448;BME280;32145;50.390;30.778;2024-03-06T03:59:39;100393.84;;;2.11;72.56
46448;BME280;32145;50.390;30.778;2024-03-06T04:02:33;100401.34;;;2.08;73.12
46448;BME280;32145;50.390;30.778;2024-03-06T04:05:29;100394.00;;;2.01;72.49
46448;BME280;32145;50.390;30.778;2024-03-06T04:08:23;100407.53;;;2.00;73.16
46448;BME280;32145;50.390;30.778;2024-03-06T04:11:17;100413.53;;;1.93;72.82
46448;BME280;32145;50.390;30.778;2024-03-06T04:14:14;100415.19;;;1.95;73.45
46448;BME280;32145;50.390;30.778;2024-03-06T04:17:10;100420.91;;;1.91;73.51
46448;BME280;32145;50.390;30.778;2024-03-06T04:20:05;100433.91;;;1.86;73.37
46448;BME280;32145;50.390;30.778;2024-03-06T04:23:01;100428.53;;;1.86;72.94
46448;BME280;32145;50.390;30.778;2024-03-06T04:25:55;100435.91;;;1.84;73.37
46448;BME280;32145;50.390;30.778;2024-03-06T04:28:50;100428.91;;;1.83;73.39
46448;BME280;32145;50.390;30.778;2024-03-06T04:31:44;100430.03;;;1.80;73.47
46448;BME280;32145;50.390;30.778;2024-03-06T04:34:39;100440.72;;;1.80;72.82
46448;BME280;32145;50.390;30.778;2024-03-06T04:37:33;100439.75;;;1.82;73.38
46448;BME280;32145;50.390;30.778;2024-03-06T04:40:29;100447.25;;;1.78;73.23
46448;BME280;32145;50.390;30.778;2024-03-06T04:43:23;100454.91;;;1.73;72.94
46448;BME280;32145;50.390;30.778;2024-03-06T04:46:17;100445.22;;;1.72;73.18
46448;BME280;32145;50.390;30.778;2024-03-06T04:49:11;100449.88;;;1.70;73.03
46448;BME280;32145;50.390;30.778;2024-03-06T04:52:06;100452.56;;;1.70;73.16
46448;BME280;32145;50.390;30.778;2024-03-06T04:55:00;100462.44;;;1.69;72.58
46448;BME280;32145;50.390;30.778;2024-03-06T04:57:56;100459.06;;;1.67;72.62
46448;BME280;32145;50.390;30.778;2024-03-06T05:00:50;100462.22;;;1.62;72.53
46448;BME280;32145;50.390;30.778;2024-03-06T05:03:44;100466.59;;;1.63;72.58
46448;BME280;32145;50.390;30.778;2024-03-06T05:06:39;100474.75;;;1.62;72.69
46448;BME280;32145;50.390;30.778;2024-03-06T05:09:33;100482.94;;;1.60;72.45
46448;BME280;32145;50.390;30.778;2024-03-06T05:12:28;100477.59;;;1.60;72.76
46448;BME280;32145;50.390;30.778;2024-03-06T05:15:24;100478.41;;;1.61;72.33
46448;BME280;32145;50.390;30.778;2024-03-06T05:18:18;100485.28;;;1.63;72.60
46448;BME280;32145;50.390;30.778;2024-03-06T05:21:12;100487.13;;;1.63;72.07
46448;BME280;32145;50.390;30.778;2024-03-06T05:24:07;100485.44;;;1.62;71.95
46448;BME280;32145;50.390;30.778;2024-03-06T05:27:01;100486.25;;;1.62;72.34
46448;BME280;32145;50.390;30.778;2024-03-06T05:29:55;100486.25;;;1.62;72.28
46448;BME280;32145;50.390;30.778;2024-03-06T05:32:51;100492.31;;;1.64;72.29
46448;BME280;32145;50.390;30.778;2024-03-06T05:35:47;100488.63;;;1.65;72.15
46448;BME280;32145;50.390;30.778;2024-03-06T05:38:44;100492.97;;;1.66;72.29
46448;BME280;32145;50.390;30.778;2024-03-06T05:41:41;100493.94;;;1.57;72.17
46448;BME280;32145;50.390;30.778;2024-03-06T05:44:37;100499.13;;;1.59;71.89
46448;BME280;32145;50.390;30.778;2024-03-06T05:47:33;100502.66;;;1.59;71.93
46448;BME280;32145;50.390;30.778;2024-03-06T05:50:31;100498.97;;;1.60;71.87
46448;BME280;32145;50.390;30.778;2024-03-06T05:53:27;100495.59;;;1.58;71.95
46448;BME280;32145;50.390;30.778;2024-03-06T05:56:24;100500.63;;;1.61;72.17
46448;BME280;32145;50.390;30.778;2024-03-06T05:59:20;100506.69;;;1.63;72.01
46448;BME280;32145;50.390;30.778;2024-03-06T06:02:16;100504.97;;;1.62;71.74
46448;BME280;32145;50.390;30.778;2024-03-06T06:05:13;100509.66;;;1.60;71.92
46448;BME280;32145;50.390;30.778;2024-03-06T06:08:11;100505.97;;;1.61;71.81
46448;BME280;32145;50.390;30.778;2024-03-06T06:11:08;100518.03;;;1.65;71.87
46448;BME280;32145;50.390;30.778;2024-03-06T06:14:04;100524.72;;;1.70;72.10
46448;BME280;32145;50.390;30.778;2024-03-06T06:17:01;100525.75;;;1.69;71.89
46448;BME280;32145;50.390;30.778;2024-03-06T06:19:57;100529.25;;;1.69;71.79
46448;BME280;32145;50.390;30.778;2024-03-06T06:22:54;100529.06;;;1.71;71.58
46448;BME280;32145;50.390;30.778;2024-03-06T06:25:52;100533.22;;;1.65;71.39
46448;BME280;32145;50.390;30.778;2024-03-06T06:28:48;100533.03;;;1.58;71.24
46448;BME280;32145;50.390;30.778;2024-03-06T06:31:44;100538.06;;;1.61;70.97
46448;BME280;32145;50.390;30.778;2024-03-06T06:34:41;100539.41;;;1.65;71.33
46448;BME280;32145;50.390;30.778;2024-03-06T06:37:37;100542.78;;;1.67;71.25
46448;BME280;32145;50.390;30.778;2024-03-06T06:40:34;100538.25;;;1.68;70.91
46448;BME280;32145;50.390;30.778;2024-03-06T06:43:25;100541.63;;;1.70;70.04
46448;BME280;32145;50.390;30.778;2024-03-06T06:46:19;100538.78;;;1.72;70.32
46448;BME280;32145;50.390;30.778;2024-03-06T06:49:10;100555.19;;;1.77;70.52
46448;BME280;32145;50.390;30.778;2024-03-06T06:51:58;100549.69;;;1.78;69.91
46448;BME280;32145;50.390;30.778;2024-03-06T06:54:54;100550.84;;;1.76;69.95
46448;BME280;32145;50.390;30.778;2024-03-06T06:57:51;100555.88;;;1.79;70.08
46448;BME280;32145;50.390;30.778;2024-03-06T07:00:47;100560.22;;;1.80;69.97
46448;BME280;32145;50.390;30.778;2024-03-06T07:03:41;100557.06;;;1.85;69.49
46448;BME280;32145;50.390;30.778;2024-03-06T07:06:29;100560.25;;;1.88;69.64
46448;BME280;32145;50.390;30.778;2024-03-06T07:09:27;100556.28;;;1.92;69.64
46448;BME280;32145;50.390;30.778;2024-03-06T07:12:21;100564.97;;;1.95;69.33
46448;BME280;32145;50.390;30.778;2024-03-06T07:15:11;100569.94;;;1.89;69.29
46448;BME280;32145;50.390;30.778;2024-03-06T07:18:07;100573.31;;;1.91;69.06
46448;BME280;32145;50.390;30.778;2024-03-06T07:20:55;100570.53;;;2.01;69.25
46448;BME280;32145;50.390;30.778;2024-03-06T07:23:52;100575.41;;;2.14;68.99
46448;BME280;32145;50.390;30.778;2024-03-06T07:26:46;100577.94;;;2.16;68.63
46448;BME280;32145;50.390;30.778;2024-03-06T07:29:34;100572.72;;;2.14;68.75
46448;BME280;32145;50.390;30.778;2024-03-06T07:32:31;100569.25;;;2.14;68.30
46448;BME280;32145;50.390;30.778;2024-03-06T07:35:29;100580.06;;;2.04;68.06
46448;BME280;32145;50.390;30.778;2024-03-06T07:38:17;100575.03;;;2.01;68.20
46448;BME280;32145;50.390;30.778;2024-03-06T07:41:14;100583.41;;;2.06;68.36
46448;BME280;32145;50.390;30.778;2024-03-06T07:44:04;100585.28;;;2.14;67.91
46448;BME280;32145;50.390;30.778;2024-03-06T07:46:58;100588.63;;;2.16;68.19
46448;BME280;32145;50.390;30.778;2024-03-06T07:49:46;100587.69;;;2.25;68.07
46448;BME280;32145;50.390;30.778;2024-03-06T07:52:45;100587.03;;;2.31;67.91
46448;BME280;32145;50.390;30.778;2024-03-06T07:55:33;100584.03;;;2.35;67.67
46448;BME280;32145;50.390;30.778;2024-03-06T07:58:30;100581.84;;;2.38;67.33
46448;BME280;32145;50.390;30.778;2024-03-06T08:01:27;100582.38;;;2.42;67.36
46448;BME280;32145;50.390;30.778;2024-03-06T08:04:17;100590.59;;;2.49;67.51
46448;BME280;32145;50.390;30.778;2024-03-06T08:07:11;100596.97;;;2.56;67.55
46448;BME280;32145;50.390;30.778;2024-03-06T08:10:01;100591.31;;;2.59;67.08
46448;BME280;32145;50.390;30.778;2024-03-06T08:12:58;100594.00;;;2.59;67.34
46448;BME280;32145;50.390;30.778;2024-03-06T08:15:48;100594.97;;;2.58;66.62
46448;BME280;32145;50.390;30.778;2024-03-06T08:18:42;100590.28;;;2.60;66.69
46448;BME280;32145;50.390;30.778;2024-03-06T08:21:31;100591.66;;;2.64;66.62
46448;BME280;32145;50.390;30.778;2024-03-06T08:24:28;100596.69;;;2.76;66.31
46448;BME280;32145;50.390;30.778;2024-03-06T08:27:26;100604.25;;;2.89;65.83
46448;BME280;32145;50.390;30.778;2024-03-06T08:30:22;100600.41;;;2.91;65.21
46448;BME280;32145;50.390;30.778;2024-03-06T08:33:19;100592.88;;;2.95;65.08
46448;BME280;32145;50.390;30.778;2024-03-06T08:36:13;100610.97;;;3.01;64.53
46448;BME280;32145;50.390;30.778;2024-03-06T08:39:10;100610.97;;;2.93;64.52
46448;BME280;32145;50.390;30.778;2024-03-06T08:42:06;100609.78;;;2.95;65.31
46448;BME280;32145;50.390;30.778;2024-03-06T08:45:05;100612.78;;;2.92;64.51
46448;BME280;32145;50.390;30.778;2024-03-06T08:48:01;100611.44;;;2.88;64.65
46448;BME280;32145;50.390;30.778;2024-03-06T08:50:51;100610.94;;;2.85;63.91
46448;BME280;32145;50.390;30.778;2024-03-06T08:53:46;100614.44;;;2.85;64.50
46448;BME280;32145;50.390;30.778;2024-03-06T08:56:43;100623.50;;;2.84;64.94
46448;BME280;32145;50.390;30.778;2024-03-06T08:59:31;100622.47;;;2.77;65.26
46448;BME280;32145;50.390;30.778;2024-03-06T09:02:28;100627.81;;;2.77;65.98
46448;BME280;32145;50.390;30.778;2024-03-06T09:05:26;100632.84;;;2.72;65.44
46448;BME280;32145;50.390;30.778;2024-03-06T09:08:14;100631.66;;;2.74;65.10
46448;BME280;32145;50.390;30.778;2024-03-06T09:11:11;100631.03;;;2.80;65.01
46448;BME280;32145;50.390;30.778;2024-03-06T09:14:07;100630.84;;;2.82;64.93
46448;BME280;32145;50.390;30.778;2024-03-06T09:16:57;100640.72;;;2.73;64.50
46448;BME280;32145;50.390;30.778;2024-03-06T09:19:53;100639.38;;;2.69;65.24
46448;BME280;32145;50.390;30.778;2024-03-06T09:22:50;100641.88;;;2.70;65.71
46448;BME280;32145;50.390;30.778;2024-03-06T09:25:44;100636.84;;;2.67;65.57
46448;BME280;32145;50.390;30.778;2024-03-06T09:28:40;100638.19;;;2.72;65.14
46448;BME280;32145;50.390;30.778;2024-03-06T09:31:30;100640.56;;;2.75;65.11
46448;BME280;32145;50.390;30.778;2024-03-06T09:34:24;100642.53;;;2.73;65.13
46448;BME280;32145;50.390;30.778;2024-03-06T09:37:14;100643.72;;;2.70;64.86
46448;BME280;32145;50.390;30.778;2024-03-06T09:40:11;100651.25;;;2.75;65.38
46448;BME280;32145;50.390;30.778;2024-03-06T09:43:15;100645.06;;;2.74;64.98
46448;BME280;32145;50.390;30.778;2024-03-06T09:46:04;100659.78;;;2.70;64.60
46448;BME280;32145;50.390;30.778;2024-03-06T09:49:01;100656.41;;;2.68;64.97
46448;BME280;32145;50.390;30.778;2024-03-06T09:51:59;100651.06;;;2.68;65.01
46448;BME280;32145;50.390;30.778;2024-03-06T09:54:55;100659.28;;;2.66;65.26
46448;BME280;32145;50.390;30.778;2024-03-06T09:57:45;100655.75;;;2.66;65.08
46448;BME280;32145;50.390;30.778;2024-03-06T10:00:41;100658.91;;;2.69;65.00
46448;BME280;32145;50.390;30.778;2024-03-06T10:03:37;100658.25;;;2.67;64.89
46448;BME280;32145;50.390;30.778;2024-03-06T10:06:28;100658.59;;;2.73;65.41
46448;BME280;32145;50.390;30.778;2024-03-06T10:09:17;100666.31;;;2.76;64.80
46448;BME280;32145;50.390;30.778;2024-03-06T10:12:12;100664.66;;;2.75;64.60
46448;BME280;32145;50.390;30.778;2024-03-06T10:15:06;100670.63;;;2.68;64.62
46448;BME280;32145;50.390;30.778;2024-03-06T10:18:13;100662.09;;;2.65;64.72
46448;BME280;32145;50.390;30.778;2024-03-06T10:21:10;100663.59;;;2.59;65.20
46448;BME280;32145;50.390;30.778;2024-03-06T10:24:05;100664.56;;;2.58;65.37
46448;BME280;32145;50.390;30.778;2024-03-06T10:26:55;100674.06;;;2.52;65.19
46448;BME280;32145;50.390;30.778;2024-03-06T10:30:03;100666.16;;;2.42;64.85
46448;BME280;32145;50.390;30.778;2024-03-06T10:32:59;100671.72;;;2.41;65.00
46448;BME280;32145;50.390;30.778;2024-03-06T10:35:56;100672.41;;;2.51;65.78
46448;BME280;32145;50.390;30.778;2024-03-06T10:38:46;100673.28;;;2.60;65.36
46448;BME280;32145;50.390;30.778;2024-03-06T10:41:43;100668.47;;;2.72;64.70
46448;BME280;32145;50.390;30.778;2024-03-06T10:44:48;100668.31;;;2.82;64.30
46448;BME280;32145;50.390;30.778;2024-03-06T10:47:49;100670.31;;;2.72;64.33
46448;BME280;32145;50.390;30.778;2024-03-06T10:50:46;100679.38;;;2.70;64.04
46448;BME280;32145;50.390;30.778;2024-03-06T10:53:44;100676.00;;;2.68;63.63
46448;BME280;32145;50.390;30.778;2024-03-06T10:56:42;100672.97;;;2.63;63.71
46448;BME280;32145;50.390;30.778;2024-03-06T10:59:36;100675.97;;;2.60;64.14
46448;BME280;32145;50.390;30.778;2024-03-06T11:02:31;100682.09;;;2.52;64.98
46448;BME280;32145;50.390;30.778;2024-03-06T11:05:21;100677.25;;;2.48;64.20
46448;BME280;32145;50.390;30.778;2024-03-06T11:08:17;100682.22;;;2.42;64.75
46448;BME280;32145;50.390;30.778;2024-03-06T11:11:24;100690.25;;;2.42;64.60
46448;BME280;32145;50.390;30.778;2024-03-06T11:14:22;100681.38;;;2.34;64.86
46448;BME280;32145;50.390;30.778;2024-03-06T11:17:11;100687.50;;;2.26;65.12
46448;BME280;32145;50.390;30.778;2024-03-06T11:20:16;100680.72;;;2.40;64.87
46448;BME280;32145;50.390;30.778;2024-03-06T11:23:14;100682.22;;;2.42;64.69
46448;BME280;32145;50.390;30.778;2024-03-06T11:26:10;100685.56;;;2.36;64.82
46448;BME280;32145;50.390;30.778;2024-03-06T11:29:07;100686.72;;;2.34;64.79
46448;BME280;32145;50.390;30.778;2024-03-06T11:32:06;100686.41;;;2.37;64.98
46448;BME280;32145;50.390;30.778;2024-03-06T11:35:01;100694.25;;;2.38;64.86
46448;BME280;32145;50.390;30.778;2024-03-06T11:37:55;100686.34;;;2.28;64.71
46448;BME280;32145;50.390;30.778;2024-03-06T11:40:52;100694.31;;;2.20;64.35
46448;BME280;32145;50.390;30.778;2024-03-06T11:43:48;100693.97;;;2.15;64.70
46448;BME280;32145;50.390;30.778;2024-03-06T11:46:43;100696.44;;;2.08;65.16
46448;BME280;32145;50.390;30.778;2024-03-06T11:49:32;100698.22;;;1.99;65.93
46448;BME280;32145;50.390;30.778;2024-03-06T11:52:29;100702.44;;;1.84;65.00
46448;BME280;32145;50.390;30.778;2024-03-06T11:55:20;100703.53;;;1.73;65.01
46448;BME280;32145;50.390;30.778;2024-03-06T11:58:15;100696.38;;;1.73;65.35
46448;BME280;32145;50.390;30.778;2024-03-06T12:01:04;100701.38;;;1.76;66.05
46448;BME280;32145;50.390;30.778;2024-03-06T12:04:00;100697.19;;;1.74;65.89
46448;BME280;32145;50.390;30.778;2024-03-06T12:06:57;100697.81;;;1.67;65.93
46448;BME280;32145;50.390;30.778;2024-03-06T12:09:52;100686.88;;;1.61;65.36
46448;BME280;32145;50.390;30.778;2024-03-06T12:12:46;100686.59;;;1.64;65.60
46448;BME280;32145;50.390;30.778;2024-03-06T12:15:43;100692.16;;;1.71;66.11
46448;BME280;32145;50.390;30.778;2024-03-06T12:18:38;100696.19;;;1.75;65.74
46448;BME280;32145;50.390;30.778;2024-03-06T12:21:28;100700.16;;;1.71;64.93
46448;BME280;32145;50.390;30.778;2024-03-06T12:24:24;100695.09;;;1.59;65.28
46448;BME280;32145;50.390;30.778;2024-03-06T12:27:14;100688.34;;;1.55;65.61
46448;BME280;32145;50.390;30.778;2024-03-06T12:30:10;100690.66;;;1.50;65.77
46448;BME280;32145;50.390;30.778;2024-03-06T12:33:08;100698.50;;;1.51;65.95
46448;BME280;32145;50.390;30.778;2024-03-06T12:36:03;100695.16;;;1.49;65.83
46448;BME280;32145;50.390;30.778;2024-03-06T12:38:59;100692.94;;;1.45;65.35
46448;BME280;32145;50.390;30.778;2024-03-06T12:41:56;100685.06;;;1.43;65.07
46448;BME280;32145;50.390;30.778;2024-03-06T12:44:52;100687.75;;;1.43;65.01
46448;BME280;32145;50.390;30.778;2024-03-06T12:47:50;100696.28;;;1.47;64.72
46448;BME280;32145;50.390;30.778;2024-03-06T12:50:40;100690.44;;;1.43;65.02
46448;BME280;32145;50.390;30.778;2024-03-06T12:53:36;100698.22;;;1.36;64.76
46448;BME280;32145;50.390;30.778;2024-03-06T12:56:34;100691.66;;;1.31;64.72
46448;BME280;32145;50.390;30.778;2024-03-06T12:59:28;100702.63;;;1.27;64.73
46448;BME280;32145;50.390;30.778;2024-03-06T13:02:17;100699.81;;;1.29;64.96
46448;BME280;32145;50.390;30.778;2024-03-06T13:05:15;100702.03;;;1.34;65.16
46448;BME280;32145;50.390;30.778;2024-03-06T13:08:05;100710.44;;;1.39;65.40
46448;BME280;32145;50.390;30.778;2024-03-06T13:11:01;100702.84;;;1.34;65.21
46448;BME280;32145;50.390;30.778;2024-03-06T13:13:52;100703.94;;;1.41;65.46
46448;BME280;32145;50.390;30.778;2024-03-06T13:16:46;100705.53;;;1.52;65.42
46448;BME280;32145;50.390;30.778;2024-03-06T13:19:42;100701.25;;;1.60;65.33
46448;BME280;32145;50.390;30.778;2024-03-06T13:22:38;100692.94;;;1.63;65.86
46448;BME280;32145;50.390;30.778;2024-03-06T13:25:36;100696.47;;;1.63;65.92
46448;BME280;32145;50.390;30.778;2024-03-06T13:28:34;100685.13;;;1.70;66.53
46448;BME280;32145;50.390;30.778;2024-03-06T13:31:28;100683.44;;;1.69;65.87
46448;BME280;32145;50.390;30.778;2024-03-06T13:34:22;100686.06;;;1.60;65.84
46448;BME280;32145;50.390;30.778;2024-03-06T13:37:19;100684.41;;;1.59;65.93
46448;BME280;32145;50.390;30.778;2024-03-06T13:40:16;100677.66;;;1.55;65.60
46448;BME280;32145;50.390;30.778;2024-03-06T13:43:13;100686.66;;;1.54;65.13
46448;BME280;32145;50.390;30.778;2024-03-06T13:46:10;100674.75;;;1.48;64.63
46448;BME280;32145;50.390;30.778;2024-03-06T13:49:00;100684.78;;;1.46;64.52
46448;BME280;32145;50.390;30.778;2024-03-06T13:51:54;100681.56;;;1.42;64.79
46448;BME280;32145;50.390;30.778;2024-03-06T13:54:51;100690.94;;;1.47;64.85
46448;BME280;32145;50.390;30.778;2024-03-06T13:57:47;100686.00;;;1.52;64.69
46448;BME280;32145;50.390;30.778;2024-03-06T14:00:43;100685.38;;;1.58;64.82
46448;BME280;32145;50.390;30.778;2024-03-06T14:03:41;100688.34;;;1.55;65.33
46448;BME280;32145;50.390;30.778;2024-03-06T14:06:29;100689.50;;;1.52;65.13
46448;BME280;32145;50.390;30.778;2024-03-06T14:09:25;100696.91;;;1.40;64.61
46448;BME280;32145;50.390;30.778;2024-03-06T14:12:23;100699.38;;;1.34;64.35
46448;BME280;32145;50.390;30.778;2024-03-06T14:15:18;100692.47;;;1.31;64.60
46448;BME280;32145;50.390;30.778;2024-03-06T14:18:14;100696.00;;;1.32;64.88
46448;BME280;32145;50.390;30.778;2024-03-06T14:21:08;100686.00;;;1.34;65.18
46448;BME280;32145;50.390;30.778;2024-03-06T14:23:52;100697.81;;;1.31;64.97
46448;BME280;32145;50.390;30.778;2024-03-06T14:26:50;100697.38;;;1.36;65.44
46448;BME280;32145;50.390;30.778;2024-03-06T14:29:38;100703.41;;;1.38;65.99
46448;BME280;32145;50.390;30.778;2024-03-06T14:32:35;100700.47;;;1.31;65.18
46448;BME280;32145;50.390;30.778;2024-03-06T14:35:32;100705.44;;;1.26;65.66
46448;BME280;32145;50.390;30.778;2024-03-06T14:38:29;100700.72;;;1.20;65.49
46448;BME280;32145;50.390;30.778;2024-03-06T14:41:25;100702.41;;;1.21;66.12
46448;BME280;32145;50.390;30.778;2024-03-06T14:44:21;100708.75;;;1.20;66.82
46448;BME280;32145;50.390;30.778;2024-03-06T14:47:18;100700.31;;;1.14;66.14
46448;BME280;32145;50.390;30.778;2024-03-06T14:50:12;100700.66;;;1.11;66.34
46448;BME280;32145;50.390;30.778;2024-03-06T14:53:08;100708.97;;;1.08;66.27
46448;BME280;32145;50.390;30.778;2024-03-06T14:56:05;100705.88;;;1.03;65.97
46448;BME280;32145;50.390;30.778;2024-03-06T14:59:01;100717.03;;;0.98;66.04
46448;BME280;32145;50.390;30.778;2024-03-06T15:01:57;100704.81;;;0.96;65.68
46448;BME280;32145;50.390;30.778;2024-03-06T15:04:53;100717.47;;;0.94;65.82
46448;BME280;32145;50.390;30.778;2024-03-06T15:07:50;100716.63;;;0.93;65.69
46448;BME280;32145;50.390;30.778;2024-03-06T15:10:48;100722.81;;;0.94;65.82
46448;BME280;32145;50.390;30.778;2024-03-06T15:13:44;100714.41;;;0.88;65.76
46448;BME280;32145;50.390;30.778;2024-03-06T15:16:40;100733.09;;;0.88;65.98